createdAt,value
2023-02-19T00:00:49.674Z,63.87
2023-02-19T00:03:58.610Z,64.08
2023-02-19T00:07:01.385Z,64.39
2023-02-19T00:10:04.219Z,63.94
2023-02-19T00:13:07.151Z,63.71
2023-02-19T00:16:13.422Z,63.24
2023-02-19T00:19:19.315Z,63.27
2023-02-19T00:22:21.862Z,63.26
2023-02-19T00:25:24.588Z,63.82
2023-02-19T00:28:27.523Z,64.53
2023-02-19T00:31:33.678Z,64.07
2023-02-19T00:34:36.468Z,64.26
2023-02-19T00:37:39.201Z,63.88
2023-02-19T00:40:42.341Z,63.64
2023-02-19T00:43:55.149Z,63.36
2023-02-19T00:46:57.827Z,63.54
2023-02-19T00:50:00.637Z,63.88
2023-02-19T00:53:03.206Z,63.32
2023-02-19T00:56:06.808Z,63.07
2023-02-19T00:59:09.841Z,62.54
2023-02-19T01:02:13.141Z,63.10
2023-02-19T01:05:15.826Z,63.91
2023-02-19T01:08:19.628Z,65.31
2023-02-19T01:11:22.439Z,67.83
2023-02-19T01:14:25.193Z,68.89
2023-02-19T01:17:28.046Z,70.42
2023-02-19T01:20:31.133Z,71.93
2023-02-19T01:23:34.217Z,73.42
2023-02-19T01:26:36.975Z,73.47
2023-02-19T01:29:39.635Z,74.52
2023-02-19T01:32:42.254Z,74.66
2023-02-19T01:35:45.048Z,74.84
2023-02-19T01:38:48.166Z,75.24
2023-02-19T01:41:51.139Z,74.82
2023-02-19T01:45:33.757Z,74.26
2023-02-19T01:48:39.749Z,73.69
2023-02-19T01:51:47.632Z,73.67
2023-02-19T01:54:50.682Z,73.18
2023-02-19T01:57:56.008Z,72.51
2023-02-19T02:01:02.544Z,72.31
2023-02-19T02:04:07.967Z,72.21
2023-02-19T02:07:34.655Z,72.16
2023-02-19T02:10:37.357Z,71.45
2023-02-19T02:13:40.825Z,71.15
2023-02-19T02:17:08.231Z,70.52
2023-02-19T02:20:14.791Z,70.86
2023-02-19T02:23:46.327Z,70.35
2023-02-19T02:27:10.779Z,70.49
2023-02-19T02:30:19.680Z,70.39
2023-02-19T02:33:44.584Z,70.38
2023-02-19T02:36:53.162Z,71.04
2023-02-19T02:39:58.478Z,71.45
2023-02-19T02:43:01.387Z,71.89
2023-02-19T02:46:04.503Z,72.57
2023-02-19T02:49:22.118Z,72.79
2023-02-19T02:52:45.306Z,73.15
2023-02-19T02:55:53.399Z,71.86
2023-02-19T02:58:58.401Z,71.56
2023-02-19T03:02:13.015Z,70.73
2023-02-19T03:05:39.072Z,71.18
2023-02-19T03:08:53.159Z,71.19
2023-02-19T03:12:19.133Z,71.45
2023-02-19T03:15:45.926Z,71.22
2023-02-19T03:19:12.462Z,71.46
2023-02-19T03:22:32.021Z,71.54
2023-02-19T03:25:57.037Z,71.02
2023-02-19T03:29:27.286Z,71.66
2023-02-19T03:32:46.572Z,71.74
2023-02-19T03:36:12.946Z,72.27
2023-02-19T03:39:20.068Z,72.40
2023-02-19T03:42:39.984Z,72.78
2023-02-19T03:45:56.117Z,73.01
2023-02-19T03:49:07.979Z,73.43
2023-02-19T03:52:30.695Z,73.33
2023-02-19T03:55:39.708Z,73.21
2023-02-19T03:59:28.097Z,73.38
2023-02-19T04:02:37.130Z,73.91
2023-02-19T04:05:48.805Z,74.27
2023-02-19T04:08:55.924Z,74.79
2023-02-19T04:11:59.969Z,75.32
2023-02-19T04:15:10.474Z,74.88
2023-02-19T04:18:17.779Z,74.59
2023-02-19T04:21:22.478Z,74.35
2023-02-19T04:24:48.443Z,74.18
2023-02-19T04:27:51.242Z,74.59
2023-02-19T04:30:54.012Z,74.43
2023-02-19T04:33:56.872Z,74.28
2023-02-19T04:36:59.563Z,74.42
2023-02-19T04:40:02.277Z,73.58
2023-02-19T04:43:04.943Z,72.65
2023-02-19T04:46:07.809Z,71.91
2023-02-19T04:49:10.503Z,70.79
2023-02-19T04:52:13.499Z,70.27
2023-02-19T04:55:16.117Z,69.87
2023-02-19T04:58:19.486Z,69.22
2023-02-19T05:01:22.297Z,69.25
2023-02-19T05:04:25.155Z,68.69
2023-02-19T05:07:27.882Z,68.52
2023-02-19T05:10:30.731Z,68.60
2023-02-19T05:13:34.191Z,68.21
2023-02-19T05:16:36.981Z,69.47
2023-02-19T05:19:39.568Z,70.90
2023-02-19T05:22:42.171Z,72.09
2023-02-19T05:25:45.088Z,71.62
2023-02-19T05:28:50.095Z,70.75
2023-02-19T05:31:52.958Z,69.73
2023-02-19T05:34:55.792Z,68.96
2023-02-19T05:37:58.613Z,68.50
2023-02-19T05:41:14.806Z,68.76
2023-02-19T05:44:17.470Z,69.08
2023-02-19T05:47:20.209Z,69.38
2023-02-19T05:50:24.068Z,68.89
2023-02-19T05:53:26.947Z,68.68
2023-02-19T05:56:42.336Z,67.98
2023-02-19T05:59:45.658Z,67.61
2023-02-19T06:02:48.696Z,67.05
2023-02-19T06:05:51.400Z,66.04
2023-02-19T06:08:54.275Z,66.11
2023-02-19T06:11:57.297Z,66.27
2023-02-19T06:15:00.091Z,66.24
2023-02-19T06:18:03.171Z,66.27
2023-02-19T06:21:07.935Z,66.40
2023-02-19T06:24:10.651Z,65.70
2023-02-19T06:27:13.255Z,65.46
2023-02-19T06:30:16.141Z,65.64
2023-02-19T06:33:19.618Z,65.21
2023-02-19T06:36:23.846Z,65.12
2023-02-19T06:39:27.154Z,65.31
2023-02-19T06:42:33.300Z,64.89
2023-02-19T06:45:36.172Z,64.65
2023-02-19T06:48:39.936Z,63.51
2023-02-19T06:51:42.819Z,62.86
2023-02-19T06:54:45.619Z,62.78
2023-02-19T06:57:48.313Z,62.29
2023-02-19T07:00:51.286Z,62.48
2023-02-19T07:03:54.597Z,62.51
2023-02-19T07:06:57.779Z,63.58
2023-02-19T07:10:00.497Z,64.54
2023-02-19T07:13:03.313Z,65.90
2023-02-19T07:16:08.975Z,67.26
2023-02-19T07:19:12.219Z,67.54
2023-02-19T07:22:15.325Z,68.34
2023-02-19T07:25:18.084Z,68.72
2023-02-19T07:28:20.820Z,68.41
2023-02-19T07:31:24.737Z,68.48
2023-02-19T07:34:27.853Z,68.70
2023-02-19T07:37:30.724Z,68.28
2023-02-19T07:40:34.559Z,68.48
2023-02-19T07:43:38.641Z,67.57
2023-02-19T07:46:41.772Z,67.19
2023-02-19T07:49:44.553Z,67.11
2023-02-19T07:52:47.281Z,66.80
2023-02-19T07:55:50.608Z,67.10
2023-02-19T07:58:53.364Z,67.36
2023-02-19T08:02:15.024Z,67.10
2023-02-19T08:05:17.813Z,67.32
2023-02-19T08:08:20.481Z,66.55
2023-02-19T08:11:42.318Z,66.46
2023-02-19T08:14:44.948Z,66.50
2023-02-19T08:17:47.670Z,66.89
2023-02-19T08:20:50.854Z,67.25
2023-02-19T08:23:53.402Z,67.19
2023-02-19T08:26:56.294Z,66.93
2023-02-19T08:29:58.960Z,66.78
2023-02-19T08:33:02.583Z,66.35
2023-02-19T08:36:07.007Z,66.43
2023-02-19T08:39:10.407Z,66.54
2023-02-19T08:42:13.041Z,65.80
2023-02-19T08:45:15.890Z,65.57
2023-02-19T08:48:18.628Z,65.62
2023-02-19T08:51:21.681Z,65.73
2023-02-19T08:54:25.798Z,65.46
2023-02-19T08:57:29.476Z,65.83
2023-02-19T09:00:32.204Z,65.71
2023-02-19T09:03:35.199Z,66.11
2023-02-19T09:06:40.005Z,65.49
2023-02-19T09:09:43.439Z,65.10
2023-02-19T09:12:45.953Z,65.21
2023-02-19T09:15:48.721Z,65.10
2023-02-19T09:18:52.010Z,63.86
2023-02-19T09:21:55.139Z,63.09
2023-02-19T09:24:57.948Z,61.34
2023-02-19T09:28:00.687Z,61.02
2023-02-19T09:31:06.218Z,59.02
2023-02-19T09:34:09.649Z,60.66
2023-02-19T09:37:12.251Z,59.51
2023-02-19T09:40:21.506Z,55.16
2023-02-19T09:43:27.898Z,50.97
2023-02-19T09:46:44.309Z,49.26
2023-02-19T09:49:53.256Z,51.52
2023-02-19T09:53:01.558Z,52.64
2023-02-19T09:56:05.017Z,52.76
2023-02-19T09:59:18.559Z,46.43
2023-02-19T10:02:24.236Z,50.76
2023-02-19T10:05:27.770Z,54.71
2023-02-19T10:08:34.200Z,54.28
2023-02-19T10:11:37.713Z,52.61
2023-02-19T10:14:45.223Z,51.93
2023-02-19T10:17:48.015Z,48.84
2023-02-19T10:20:52.550Z,46.71
2023-02-19T10:23:59.653Z,48.59
2023-02-19T10:27:02.383Z,46.61
2023-02-19T10:30:06.356Z,46.39
2023-02-19T10:33:15.239Z,50.71
2023-02-19T10:36:32.421Z,49.38
2023-02-19T10:39:46.997Z,49.47
2023-02-19T10:42:54.315Z,47.84
2023-02-19T10:45:58.559Z,51.05
2023-02-19T10:49:39.488Z,53.45
2023-02-19T10:52:42.433Z,54.35
2023-02-19T10:55:46.752Z,55.30
2023-02-19T10:58:49.864Z,56.66
2023-02-19T11:02:17.151Z,57.24
2023-02-19T11:05:20.394Z,57.94
2023-02-19T11:08:24.504Z,64.36
2023-02-19T11:11:29.550Z,65.93
2023-02-19T11:14:34.776Z,65.07
2023-02-19T11:17:37.566Z,65.33
2023-02-19T11:20:54.588Z,63.96
2023-02-19T11:23:57.324Z,63.80
2023-02-19T11:27:06.125Z,63.15
2023-02-19T11:30:42.586Z,63.49
2023-02-19T11:34:14.750Z,63.64
2023-02-19T11:37:21.355Z,64.30
2023-02-19T11:40:35.686Z,62.46
2023-02-19T11:44:03.014Z,60.07
2023-02-19T11:47:30.344Z,59.23
2023-02-19T11:50:36.527Z,58.45
2023-02-19T11:53:49.666Z,56.81
2023-02-19T11:57:14.932Z,55.71
2023-02-19T12:00:29.291Z,51.50
2023-02-19T12:03:51.107Z,53.74
2023-02-19T12:07:07.286Z,53.64
2023-02-19T12:10:18.309Z,50.89
2023-02-19T12:13:33.528Z,52.58
2023-02-19T12:16:43.827Z,48.77
2023-02-19T12:20:11.539Z,48.25
2023-02-19T12:23:24.040Z,48.89
2023-02-19T12:26:30.905Z,50.66
2023-02-19T12:30:02.286Z,51.54
2023-02-19T12:33:27.292Z,51.09
2023-02-19T12:36:44.817Z,50.32
2023-02-19T12:40:13.158Z,50.96
2023-02-19T12:43:23.224Z,51.60
2023-02-19T12:46:32.978Z,53.58
2023-02-19T12:49:37.789Z,53.26
2023-02-19T12:52:46.435Z,52.93
2023-02-19T12:55:49.940Z,51.33
2023-02-19T12:58:59.014Z,51.83
2023-02-19T13:02:20.030Z,52.20
2023-02-19T13:05:25.926Z,52.96
2023-02-19T13:08:45.335Z,54.37
2023-02-19T13:12:27.824Z,54.70
2023-02-19T13:15:42.511Z,53.54
2023-02-19T13:18:48.251Z,53.16
2023-02-19T13:22:21.480Z,51.80
2023-02-19T13:25:48.269Z,48.57
2023-02-19T13:28:53.515Z,49.54
2023-02-19T13:31:59.152Z,51.25
2023-02-19T13:35:20.367Z,51.85
2023-02-19T13:38:24.411Z,52.25
2023-02-19T13:41:28.720Z,53.43
2023-02-19T13:44:41.668Z,52.87
2023-02-19T13:47:57.424Z,52.93
2023-02-19T13:51:27.135Z,53.64
2023-02-19T13:54:31.348Z,53.01
2023-02-19T13:57:35.407Z,53.52
2023-02-19T14:00:50.604Z,54.36
2023-02-19T14:04:17.081Z,54.57
2023-02-19T14:07:26.860Z,53.65
2023-02-19T14:10:58.071Z,54.16
2023-02-19T14:14:06.552Z,54.82
2023-02-19T14:17:09.446Z,55.51
2023-02-19T14:20:15.157Z,55.12
2023-02-19T14:23:24.334Z,55.33
2023-02-19T14:26:27.904Z,56.34
2023-02-19T14:29:30.891Z,56.76
2023-02-19T14:32:33.551Z,55.26
2023-02-19T14:35:40.998Z,54.13
2023-02-19T14:38:59.857Z,53.38
2023-02-19T14:42:07.544Z,52.58
2023-02-19T14:45:10.672Z,52.68
2023-02-19T14:48:21.233Z,52.49
2023-02-19T14:51:41.812Z,51.94
2023-02-19T14:54:54.361Z,51.84
2023-02-19T14:58:00.330Z,51.34
2023-02-19T15:01:05.694Z,52.22
2023-02-19T15:04:25.973Z,52.96
2023-02-19T15:07:33.074Z,53.74
2023-02-19T15:10:36.830Z,54.74
2023-02-19T15:13:45.690Z,55.86
2023-02-19T15:16:49.812Z,55.94
2023-02-19T15:19:53.563Z,56.50
2023-02-19T15:22:59.455Z,56.70
2023-02-19T15:26:02.810Z,56.91
2023-02-19T15:29:19.019Z,56.43
2023-02-19T15:32:27.241Z,56.71
2023-02-19T15:35:32.650Z,56.83
2023-02-19T15:38:35.830Z,56.87
2023-02-19T15:41:38.905Z,57.31
2023-02-19T15:44:55.425Z,57.53
2023-02-19T15:48:15.086Z,57.81
2023-02-19T15:51:24.772Z,57.97
2023-02-19T15:54:45.405Z,58.36
2023-02-19T15:58:04.734Z,58.67
2023-02-19T16:01:26.617Z,59.36
2023-02-19T16:04:30.680Z,59.72
2023-02-19T16:07:33.778Z,59.86
2023-02-19T16:10:39.722Z,60.01
2023-02-19T16:13:42.806Z,60.30
2023-02-19T16:16:48.906Z,60.32
2023-02-19T16:19:53.520Z,60.20
2023-02-19T16:23:01.642Z,60.55
2023-02-19T16:26:04.401Z,60.85
2023-02-19T16:29:20.222Z,61.03
2023-02-19T16:32:23.351Z,61.43
2023-02-19T16:35:37.383Z,61.53
2023-02-19T16:39:03.818Z,61.29
2023-02-19T16:42:14.594Z,61.59
2023-02-19T16:45:18.620Z,61.89
2023-02-19T16:48:22.615Z,62.08
2023-02-19T16:51:27.567Z,62.44
2023-02-19T16:54:30.654Z,62.88
2023-02-19T16:57:33.477Z,62.67
2023-02-19T17:00:36.273Z,62.67
2023-02-19T17:03:39.877Z,63.07
2023-02-19T17:06:44.552Z,62.83
2023-02-19T17:09:47.540Z,62.81
2023-02-19T17:12:52.013Z,63.48
2023-02-19T17:15:55.417Z,63.18
2023-02-19T17:18:59.003Z,63.96
2023-02-19T17:22:02.698Z,64.79
2023-02-19T17:25:05.921Z,65.44
2023-02-19T17:28:08.749Z,65.06
2023-02-19T17:31:13.139Z,65.17
2023-02-19T17:34:16.155Z,64.12
2023-02-19T17:37:19.172Z,64.53
2023-02-19T17:40:32.747Z,64.66
2023-02-19T17:43:36.644Z,64.42
2023-02-19T17:46:39.656Z,64.74
2023-02-19T17:49:43.280Z,65.68
2023-02-19T17:52:46.095Z,67.11
2023-02-19T17:55:49.306Z,66.72
2023-02-19T17:58:56.819Z,66.74
2023-02-19T18:01:59.960Z,66.78
2023-02-19T18:05:03.146Z,67.09
2023-02-19T18:08:06.494Z,66.98
2023-02-19T18:11:09.761Z,67.80
2023-02-19T18:14:13.144Z,68.21
2023-02-19T18:17:16.133Z,69.06
2023-02-19T18:20:23.329Z,71.29
2023-02-19T18:23:26.301Z,76.12
2023-02-19T18:26:29.320Z,78.06
2023-02-19T18:29:34.989Z,78.27
2023-02-19T18:32:38.577Z,79.20
2023-02-19T18:35:41.603Z,79.07
2023-02-19T18:38:44.848Z,79.75
2023-02-19T18:41:49.976Z,79.79
2023-02-19T18:44:53.106Z,78.94
2023-02-19T18:47:56.184Z,79.31
2023-02-19T18:50:59.476Z,78.47
2023-02-19T18:54:04.033Z,77.30
2023-02-19T18:57:08.806Z,74.78
2023-02-19T19:00:20.413Z,72.97
2023-02-19T19:03:24.143Z,71.74
2023-02-19T19:06:27.453Z,72.25
2023-02-19T19:09:30.446Z,72.93
2023-02-19T19:12:33.356Z,73.91
2023-02-19T19:15:36.398Z,71.85
2023-02-19T19:18:39.785Z,71.80
2023-02-19T19:21:43.308Z,72.07
2023-02-19T19:24:46.224Z,72.29
2023-02-19T19:27:52.388Z,72.81
2023-02-19T19:30:55.241Z,72.19
2023-02-19T19:33:58.380Z,72.44
2023-02-19T19:37:01.083Z,71.61
2023-02-19T19:40:04.298Z,71.38
2023-02-19T19:43:07.180Z,71.33
2023-02-19T19:46:10.691Z,71.40
2023-02-19T19:49:18.672Z,70.78
2023-02-19T19:52:21.659Z,71.35
2023-02-19T19:55:24.690Z,70.22
2023-02-19T19:58:28.315Z,70.09
2023-02-19T20:01:31.229Z,70.51
2023-02-19T20:04:34.675Z,69.85
2023-02-19T20:07:37.651Z,70.07
2023-02-19T20:10:40.741Z,68.58
2023-02-19T20:13:43.777Z,68.15
2023-02-19T20:16:47.740Z,68.90
2023-02-19T20:19:50.700Z,67.19
2023-02-19T20:22:53.962Z,67.43
2023-02-19T20:25:57.673Z,65.99
2023-02-19T20:29:00.755Z,66.21
2023-02-19T20:32:04.104Z,66.20
2023-02-19T20:35:07.019Z,66.15
2023-02-19T20:38:14.019Z,66.59
2023-02-19T20:41:17.153Z,66.37
2023-02-19T20:44:19.950Z,67.02
2023-02-19T20:47:23.082Z,66.89
2023-02-19T20:50:27.254Z,66.92
2023-02-19T20:53:31.070Z,66.78
2023-02-19T20:56:33.904Z,65.96
2023-02-19T20:59:38.840Z,66.80
2023-02-19T21:02:42.594Z,66.89
2023-02-19T21:05:45.860Z,66.46
2023-02-19T21:08:48.934Z,66.52
2023-02-19T21:11:53.195Z,66.99
2023-02-19T21:14:56.394Z,67.42
2023-02-19T21:17:59.390Z,67.42
2023-02-19T21:21:02.687Z,66.56
2023-02-19T21:24:06.246Z,65.49
2023-02-19T21:27:09.656Z,65.42
2023-02-19T21:30:12.952Z,65.80
2023-02-19T21:33:16.679Z,65.71
2023-02-19T21:36:19.581Z,66.04
2023-02-19T21:39:24.193Z,65.83
2023-02-19T21:42:27.044Z,65.23
2023-02-19T21:45:30.315Z,65.46
2023-02-19T21:48:33.340Z,65.13
2023-02-19T21:51:38.583Z,65.45
2023-02-19T21:54:41.298Z,65.32
2023-02-19T21:57:43.846Z,65.63
2023-02-19T22:00:46.517Z,65.57
2023-02-19T22:03:49.717Z,65.17
2023-02-19T22:06:55.554Z,65.20
2023-02-19T22:09:58.318Z,65.36
2023-02-19T22:13:01.109Z,65.49
2023-02-19T22:16:03.853Z,64.94
2023-02-19T22:19:06.506Z,65.15
2023-02-19T22:22:09.319Z,64.86
2023-02-19T22:25:12.270Z,64.52
2023-02-19T22:28:15.299Z,64.20
2023-02-19T22:31:20.807Z,63.41
2023-02-19T22:34:23.716Z,63.55
2023-02-19T22:37:27.057Z,63.59
2023-02-19T22:40:29.740Z,63.93
2023-02-19T22:43:32.369Z,63.58
2023-02-19T22:46:34.952Z,64.09
2023-02-19T22:49:39.517Z,63.95
2023-02-19T22:52:42.164Z,63.27
2023-02-19T22:55:45.006Z,63.00
2023-02-19T22:58:48.597Z,63.03
2023-02-19T23:01:52.509Z,63.54
2023-02-19T23:04:55.088Z,63.13
2023-02-19T23:07:57.799Z,63.08
2023-02-19T23:11:00.555Z,63.45
2023-02-19T23:14:03.608Z,63.73
2023-02-19T23:17:06.333Z,64.00
2023-02-19T23:20:09.488Z,64.22
2023-02-19T23:23:12.194Z,64.69
2023-02-19T23:26:16.162Z,64.52
2023-02-19T23:29:23.793Z,64.96
2023-02-19T23:32:27.936Z,65.08
2023-02-19T23:35:31.551Z,64.75
2023-02-19T23:38:34.521Z,64.80
2023-02-19T23:41:37.373Z,64.63
2023-02-19T23:44:40.087Z,64.70
2023-02-19T23:47:42.796Z,64.16
2023-02-19T23:50:46.490Z,63.20
2023-02-19T23:53:49.211Z,62.04
2023-02-19T23:56:51.976Z,61.49
2023-02-19T23:59:54.695Z,60.55
